Aviation Digital Data Service (ADDS)

Output produced by METARs form (1101 UTC 30 April 2017)
found at http://www.aviationweather.gov/adds/metars/
 
LATI 301050Z 36004KT 260V040 9999 FEW030 SCT140 20/11 Q1010 NOSIG
TAF LATI 300500Z 3006/0106 VRB04KT 9999 SCT070 BKN120 
     TEMPO 3010/3017 32012KT -TSRA FEW030CB BKN050
       
LATI 301050Z 36004KT 260V040 9999 FEW030 SCT140 20/11 Q1010 NOSIG
TAF LATI 300500Z 3006/0106 VRB04KT 9999 SCT070 BKN120 
     TEMPO 3010/3017 32012KT -TSRA FEW030CB BKN050